Terminal Aerodrome Forecast
Issued by NWS Wilmington, OH

Current Version | Previous Version | Text Only | Print | Product List | Glossary Off
Versions: 1 2 3 4 5 6 7 8 9 10 11 12 13 14 15 16 17 18

000
FTUS41 KILN 240208 AAD
TAFDAY
TAF AMD
KDAY 240208Z 2402/2424 31008KT P6SM VCSH SCT006 BKN027 OVC030
     FM240400 33008KT P6SM SCT027 BKN250
     FM241200 29010KT P6SM SCT150
     FM241600 28013G20KT P6SM SCT090=

USA.gov is the U.S. government's official web portal to all federal, state and local government web resources and services.